Flight Track Log - Related Links

Times and Time Zones

All times are in EST time to prevent confusion due to time zone crossing. See the N7377R flight status page for this flight to view local times or setup timezone preferences in your user account.

Time Position Orientation Groundspeed Altitude Reporting Facility
EST Latitude Longitude Course Direction KTS MPH feet Rate Location/Type
Wed 05:34:05 PM 38.6833 -77.5333 237° Southwest 112 129 2,100  Level Potomac TRACON
Wed 05:35:05 PM 38.6833 -77.5833 270° West 120 138 2,700 750 Climbing Potomac TRACON
Wed 05:36:05 PM 38.6667 -77.6000 218° Southwest 110 127 3,600 850 Climbing Potomac TRACON
Wed 05:37:05 PM 38.6333 -77.6167 201° Southwest 112 129 4,400 793 Climbing Potomac TRACON
Wed 05:38:06 PM 38.6000 -77.6500 218° Southwest 113 130 5,200 843 Climbing Potomac TRACON
Wed 05:39:06 PM 38.5833 -77.6667 218° Southwest 109 125 6,100 400 Climbing Potomac TRACON
Wed 05:40:06 PM 38.5500 -77.7000 218° Southwest 135 155 6,000  Descending Potomac TRACON
Wed 05:41:06 PM 38.5167 -77.7167 201° Southwest 156 180 6,100 248 Climbing Potomac TRACON
Wed 05:42:07 PM 38.4833 -77.7500 218° Southwest 141 162 6,500 545 Climbing Potomac TRACON
Wed 05:43:07 PM 38.4500 -77.7667 201° Southwest 127 146 7,200 700 Climbing Potomac TRACON
Wed 05:44:07 PM 38.4333 -77.8000 237° Southwest 121 139 7,900 450 Climbing Potomac TRACON
Wed 05:45:07 PM 38.4000 -77.8167 201° Southwest 132 152 8,100 100 Climbing Potomac TRACON
Wed 05:46:07 PM 38.3667 -77.8500 218° Southwest 146 168 8,100 -50 Level Potomac TRACON
Wed 05:47:07 PM 38.3333 -77.8833 218° Southwest 151 174 8,000 -50 Descending Potomac TRACON
Wed 05:48:07 PM 38.3000 -77.9000 201° Southwest 149 171 8,000  Level Potomac TRACON
Wed 05:49:07 PM 38.2667 -77.9333 218° Southwest 149 171 8,000  Level Potomac TRACON
Wed 05:50:08 PM 38.2333 -77.9667 218° Southwest 152 175 8,000  Level Potomac TRACON
Wed 05:51:08 PM 38.2000 -78.0000 218° Southwest 152 175 8,000  Level Potomac TRACON
Wed 05:52:08 PM 38.1667 -78.0333 218° Southwest 153 176 8,000 50 Level Potomac TRACON
Wed 05:53:08 PM 38.1333 -78.0667 218° Southwest 152 175 8,100  Climbing Potomac TRACON
Wed 05:54:08 PM 38.1167 -78.1000 238° Southwest 154 177 8,000 -50 Descending Potomac TRACON
Wed 05:55:08 PM 38.0833 -78.1500 230° Southwest 151 174 8,000  Level Potomac TRACON
Wed 05:56:08 PM 38.0500 -78.1833 218° Southwest 150 173 8,000  Level Potomac TRACON
Wed 05:57:09 PM 38.0167 -78.2167 218° Southwest 153 176 8,000  Level Potomac TRACON
Wed 05:58:09 PM 38.0000 -78.2667 247° West 146 168 8,000 50 Level Potomac TRACON
Wed 05:59:09 PM 37.9667 -78.3000 218° Southwest 154 177 8,100  Climbing Potomac TRACON
Wed 06:00:09 PM 37.9333 -78.3333 218° Southwest 147 169 8,000  Descending Potomac TRACON
Wed 06:01:09 PM 37.9167 -78.3667 238° Southwest 151 174 8,100 50 Climbing Potomac TRACON
Wed 06:02:09 PM 37.8833 -78.4167 230° Southwest 148 170 8,100 -50 Level Potomac TRACON
Wed 06:03:09 PM 37.8500 -78.4500 218° Southwest 151 174 8,000 -50 Descending Potomac TRACON
Wed 06:04:09 PM 37.8167 -78.4833 218° Southwest 152 175 8,000 50 Level Potomac TRACON
Wed 06:05:10 PM 37.8000 -78.5167 238° Southwest 149 171 8,100 50 Climbing Potomac TRACON
Wed 06:06:10 PM 37.7667 -78.5667 230° Southwest 154 177 8,100  Level Potomac TRACON
Wed 06:08:00 PM 37.6951 -78.6204 211° Southwest  Level FlightAware Approximate
Wed 06:15:00 PM 37.4699 -78.9094 230° Southwest  Level FlightAware Approximate
Wed 06:16:00 PM 37.4405 -78.9530 230° Southwest  Level FlightAware Approximate
Wed 06:17:00 PM 37.4110 -78.9965 230° Southwest  Level FlightAware Approximate
Wed 06:18:00 PM 37.3816 -79.0399 230° Southwest  Level FlightAware Approximate
Wed 06:19:00 PM 37.3521 -79.0834 230° Southwest  Level FlightAware Approximate
Wed 06:20:00 PM 37.3226 -79.1268 229° Southwest  Level FlightAware Approximate
Wed 06:21:00 PM 37.2931 -79.1701 229° Southwest  Level FlightAware Approximate
Wed 06:22:00 PM 37.2636 -79.2134 229° Southwest  Level FlightAware Approximate
Wed 06:23:00 PM 37.2335 -79.2561 228° Southwest  Level FlightAware Approximate
Wed 06:24:00 PM 37.2029 -79.2982 228° Southwest  Level FlightAware Approximate
Wed 06:25:00 PM 37.1723 -79.3403 228° Southwest  Level FlightAware Approximate
Wed 06:26:00 PM 37.1417 -79.3824 228° Southwest  Level FlightAware Approximate
Wed 06:27:00 PM 37.1113 -79.4247 230° Southwest  Level FlightAware Approximate
Wed 06:28:00 PM 37.0822 -79.4684 230° Southwest  Level FlightAware Approximate
Wed 06:29:00 PM 37.0531 -79.5120 230° Southwest  Level FlightAware Approximate
Wed 06:30:00 PM 37.0248 -79.5564 232° Southwest  Level FlightAware Approximate
Wed 06:31:00 PM 36.9965 -79.6009 231° Southwest  Level FlightAware Approximate
Wed 06:32:00 PM 36.9682 -79.6453 231° Southwest  Level FlightAware Approximate
Wed 06:33:00 PM 36.9399 -79.6897 231° Southwest  Level FlightAware Approximate
Wed 06:34:00 PM 36.9103 -79.7328 229° Southwest  Level FlightAware Approximate
Wed 06:35:00 PM 36.8803 -79.7754 229° Southwest  Level FlightAware Approximate
Wed 06:36:00 PM 36.8503 -79.8179 229° Southwest  Level FlightAware Approximate
Wed 06:37:00 PM 36.8203 -79.8605 229° Southwest  Level FlightAware Approximate
Wed 06:38:00 PM 36.7902 -79.9030 229° Southwest  Level FlightAware Approximate
Wed 06:39:00 PM 36.7602 -79.9454 229° Southwest  Level FlightAware Approximate
Wed 06:40:00 PM 36.7308 -79.9885 238° Southwest  Level FlightAware Approximate
Wed 06:41:00 PM 36.7040 -80.0340 228° Southwest  Level FlightAware Approximate
Wed 06:42:00 PM 36.6735 -80.0758 228° Southwest  Level FlightAware Approximate
Wed 06:43:00 PM 36.6428 -80.1176 228° Southwest  Level FlightAware Approximate
Wed 06:44:00 PM 36.6122 -80.1593 228° Southwest  Level FlightAware Approximate
Wed 06:45:00 PM 36.5816 -80.2011 228° Southwest  Level FlightAware Approximate
Wed 06:46:00 PM 36.5508 -80.2429 228° Southwest  Level FlightAware Approximate
Wed 06:47:00 PM 36.5204 -80.2849 229° Southwest  Level FlightAware Approximate
Wed 06:48:00 PM 36.4903 -80.3272 229° Southwest  Level FlightAware Approximate
Wed 06:49:00 PM 36.4601 -80.3696 228° Southwest  Level FlightAware Approximate
Wed 06:50:00 PM 36.4300 -80.4118 228° Southwest  Level FlightAware Approximate
Wed 06:50:09 PM 36.4850 -80.3592 228° Southwest 163 188 8,100  Level Atlanta Center
Wed 06:51:00 PM 36.3998 -80.4541 228° Southwest  Level FlightAware Approximate
Wed 06:51:09 PM 36.4589 -80.3964 229° Southwest 155 178 8,100  Level Atlanta Center
Wed 06:52:00 PM 36.3696 -80.4963 228° Southwest  Level FlightAware Approximate
Wed 06:52:09 PM 36.4269 -80.4444 230° Southwest 155 178 8,100  Level Atlanta Center
Wed 06:53:00 PM 36.3394 -80.5385 228° Southwest  Level FlightAware Approximate
Wed 06:53:09 PM 36.3969 -80.4844 227° Southwest 155 178 8,100  Level Atlanta Center
Wed 06:54:00 PM 36.3092 -80.5807 228° Southwest  Level FlightAware Approximate
Wed 06:54:09 PM 36.3667 -80.5269 229° Southwest 160 184 8,100  Level Atlanta Center
Wed 06:55:09 PM 36.3389 -80.5694 231° Southwest 165 190 8,100  Level Atlanta Center
Wed 06:56:09 PM 36.3128 -80.6092 231° Southwest 165 190 8,100  Level Atlanta Center
Wed 06:57:09 PM 36.2825 -80.6492 227° Southwest 165 190 8,100  Level Atlanta Center
Wed 06:58:09 PM 36.2525 -80.6917 229° Southwest 165 190 8,100  Level Atlanta Center
Wed 06:59:09 PM 36.2244 -80.7339 231° Southwest 165 190 8,100  Level Atlanta Center
Wed 07:00:09 PM 36.1922 -80.7764 227° Southwest 165 190 8,100  Level Atlanta Center
Wed 07:01:09 PM 36.1642 -80.8189 231° Southwest 170 196 8,100  Level Atlanta Center
Wed 07:02:09 PM 36.1319 -80.8664 230° Southwest 170 196 8,100  Level Atlanta Center
Wed 07:03:09 PM 36.1039 -80.9086 231° Southwest 170 196 8,100  Level Atlanta Center
Wed 07:04:09 PM 36.0736 -80.9508 228° Southwest 170 196 8,100  Level Atlanta Center
Wed 07:05:09 PM 36.0414 -80.9958 228° Southwest 170 196 8,100  Level Atlanta Center
Wed 07:06:09 PM 36.0111 -81.0378 228° Southwest 170 196 8,100  Level Atlanta Center
Wed 07:07:09 PM 35.9831 -81.0800 231° Southwest 170 196 8,100  Level Atlanta Center
Wed 07:08:09 PM 35.9528 -81.1222 228° Southwest 170 196 8,100  Level Atlanta Center
Wed 07:09:09 PM 35.9225 -81.1642 228° Southwest 170 196 8,100  Level Atlanta Center
Wed 07:10:09 PM 35.8922 -81.2064 228° Southwest 170 196 8,100  Level Atlanta Center
Wed 07:11:09 PM 35.8661 -81.2508 234° Southwest 170 196 8,100  Level Atlanta Center
Wed 07:12:09 PM 35.8442 -81.3003 241° Southwest 170 196 8,100  Level Atlanta Center
Wed 07:13:09 PM 35.8244 -81.3469 242° Southwest 170 196 8,100  Level Atlanta Center
Wed 07:14:09 PM 35.8025 -81.3939 240° Southwest 170 196 8,100  Level Atlanta Center
Wed 07:15:09 PM 35.7786 -81.4458 240° Southwest 170 196 8,100  Level Atlanta Center
Wed 07:16:09 PM 35.7586 -81.4925 242° Southwest 164 189 8,100  Level Atlanta Center
Wed 07:17:09 PM 35.7347 -81.5444 240° Southwest 169 194 8,100 -50 Level Atlanta Center
Wed 07:18:09 PM 35.7147 -81.5936 243° Southwest 169 194 8,000  Descending Atlanta Center
Wed 07:19:09 PM 35.6928 -81.6403 240° Southwest 163 188 8,100 50 Climbing Atlanta Center
Wed 07:20:09 PM 35.6686 -81.6922 240° Southwest 163 188 8,100  Level Atlanta Center
Wed 07:21:09 PM 35.6467 -81.7386 240° Southwest 163 188 8,100  Level Atlanta Center
Wed 07:22:09 PM 35.6267 -81.7878 243° Southwest 163 188 8,100  Level Atlanta Center
Wed 07:23:09 PM 35.6025 -81.8397 240° Southwest 163 188 8,100  Level Atlanta Center
Wed 07:24:09 PM 35.5806 -81.8886 241° Southwest 163 188 8,100  Level Atlanta Center
Wed 07:25:09 PM 35.5583 -81.9353 240° Southwest 163 188 8,100  Level Atlanta Center
Wed 07:26:09 PM 35.5361 -81.9842 241° Southwest 163 188 8,100  Level Atlanta Center
Wed 07:27:09 PM 35.5142 -82.0333 241° Southwest 163 188 8,100  Level Atlanta Center
Wed 07:28:09 PM 35.4942 -82.0822 243° Southwest 163 188 8,100  Level Atlanta Center
Wed 07:29:09 PM 35.4697 -82.1314 239° Southwest 163 188 8,100  Level Atlanta Center
Wed 07:30:09 PM 35.4475 -82.1803 241° Southwest 163 188 8,100  Level Atlanta Center
Wed 07:31:09 PM 35.4275 -82.2292 243° Southwest 168 193 8,100  Level Atlanta Center
Wed 07:32:09 PM 35.4053 -82.2781 241° Southwest 168 193 8,100  Level Atlanta Center
Wed 07:33:09 PM 35.3786 -82.3169 230° Southwest 161 185 8,100  Level Atlanta Center
Wed 07:34:09 PM 35.3478 -82.3556 226° Southwest 167 192 8,100  Level Atlanta Center
Wed 07:35:09 PM 35.3172 -82.4022 231° Southwest 161 185 8,100  Level Atlanta Center
Wed 07:36:09 PM 35.2906 -82.4408 230° Southwest 161 185 8,100  Level Atlanta Center
Wed 07:37:09 PM 35.2619 -82.4847 231° Southwest 162 186 8,100  Level Atlanta Center
Wed 07:38:09 PM 35.2333 -82.5258 230° Southwest 160 184 8,100  Level Atlanta Center
Wed 07:39:09 PM 35.2006 -82.5747 231° Southwest 166 191 8,100  Level Atlanta Center
Wed 07:40:09 PM 35.1717 -82.6108 226° Southwest 166 191 8,100  Level Atlanta Center
Wed 07:41:09 PM 35.1428 -82.6494 228° Southwest 166 191 8,100  Level Atlanta Center
Wed 07:42:09 PM 35.1122 -82.6956 231° Southwest 171 197 8,100  Level Atlanta Center
Wed 07:43:09 PM 35.0833 -82.7392 231° Southwest 172 198 8,100  Level Atlanta Center
Wed 07:44:09 PM 35.0567 -82.7778 230° Southwest 166 191 8,100  Level Atlanta Center
Wed 07:45:09 PM 35.0278 -82.8186 229° Southwest 166 191 8,100  Level Atlanta Center
Wed 07:46:09 PM 34.9969 -82.8647 231° Southwest 161 185 8,100  Level Atlanta Center
Wed 07:47:09 PM 34.9703 -82.9006 228° Southwest 162 186 8,100  Level Atlanta Center
Wed 07:48:09 PM 34.9394 -82.9467 231° Southwest 162 186 8,100 -50 Level Atlanta Center
Wed 07:49:09 PM 34.9106 -82.9875 229° Southwest 162 186 8,000 -50 Descending Atlanta Center
Wed 07:50:09 PM 34.8817 -83.0261 228° Southwest 162 186 8,000  Level Atlanta Center
Wed 07:51:09 PM 34.8547 -83.0694 233° Southwest 162 186 8,000  Level Atlanta Center
Wed 07:52:09 PM 34.8258 -83.1128 231° Southwest 162 186 8,000  Level Atlanta Center
Wed 07:53:09 PM 34.7969 -83.1533 229° Southwest 162 186 8,000  Level Atlanta Center
Wed 07:54:09 PM 34.7681 -83.1942 229° Southwest 162 186 8,000  Level Atlanta Center
Wed 07:55:09 PM 34.7369 -83.2375 229° Southwest 162 186 8,000  Level Atlanta Center
Wed 07:56:09 PM 34.7103 -83.2783 232° Southwest 162 186 8,000  Level Atlanta Center
Wed 07:57:09 PM 34.6750 -83.3214 225° Southwest 162 186 8,000  Level Atlanta Center
Wed 07:58:09 PM 34.6417 -83.3519 217° Southwest 162 186 8,000  Level Atlanta Center
Wed 07:59:09 PM 34.6064 -83.3928 224° Southwest 162 186 8,000  Level Atlanta Center
Wed 08:00:09 PM 34.5711 -83.4308 222° Southwest 162 186 8,000 50 Level Atlanta Center
Wed 08:01:09 PM 34.5381 -83.4689 223° Southwest 162 186 8,100  Climbing Atlanta Center
Wed 08:02:09 PM 34.5047 -83.5019 219° Southwest 162 186 8,000 -50 Descending Atlanta Center
Wed 08:03:09 PM 34.4717 -83.5425 225° Southwest 168 193 8,000  Level Atlanta Center
Wed 08:04:09 PM 34.4489 -83.5878 239° Southwest 163 188 8,000  Level Atlanta Center
Wed 08:05:09 PM 34.4261 -83.6358 240° Southwest 163 188 8,000  Level Atlanta Center
Wed 08:06:09 PM 34.4011 -83.6814 236° Southwest 163 188 8,000  Level Atlanta Center
Wed 08:07:09 PM 34.3761 -83.7267 236° Southwest 163 188 8,000  Level Atlanta Center
Wed 08:08:09 PM 34.3575 -83.7694 242° Southwest 163 188 8,000  Level Atlanta Center
Wed 08:09:09 PM 34.3325 -83.8175 238° Southwest 163 188 8,000  Level Atlanta Center
Wed 08:10:09 PM 34.3075 -83.8628 236° Southwest 163 188 8,000  Level Atlanta Center
Wed 08:11:09 PM 34.2847 -83.9106 240° Southwest 163 188 8,000  Level Atlanta Center
Wed 08:12:09 PM 34.2597 -83.9558 236° Southwest 163 188 8,000  Level Atlanta Center
Wed 08:13:09 PM 34.2367 -84.0036 240° Southwest 163 188 8,000  Level Atlanta Center
Wed 08:14:09 PM 34.2117 -84.0539 239° Southwest 163 188 8,000  Level Atlanta Center
Wed 08:15:09 PM 34.1867 -84.1017 238° Southwest 163 188 8,000 -200 Level Atlanta Center
Wed 08:16:09 PM 34.1678 -84.1517 245° Southwest 168 193 7,600 -522 Descending Atlanta Center
Wed 08:17:50 PM 34.1333 -84.2500 247° West 191 220 6,600 -488 Descending Atlanta TRACON
Wed 08:18:49 PM 34.1167 -84.3000 248° West 187 215 6,300 -303 Descending Atlanta TRACON
Wed 08:19:49 PM 34.1000 -84.3667 253° West 180 207 6,000 -104 Descending Atlanta TRACON
Wed 08:20:44 PM 34.0833 -84.4167 248° West 170 196 6,100 -52 Climbing Atlanta TRACON
Wed 08:21:44 PM 34.0667 -84.4667 248° West 166 191 5,900 -300 Descending Atlanta TRACON
Wed 08:22:44 PM 34.0333 -84.5167 231° Southwest 177 204 5,500 -400 Descending Atlanta TRACON
Wed 08:23:44 PM 34.0167 -84.5667 248° West 175 201 5,100 -238 Descending Atlanta TRACON
Wed 08:24:50 PM 34.0000 -84.6333 253° West 165 190 5,000 -48 Descending Atlanta TRACON
Wed 08:25:50 PM 33.9833 -84.6833 248° West 160 184 5,000  Level Atlanta TRACON
Wed 08:26:49 PM 33.9667 -84.7333 248° West 164 189 5,000 50 Level Atlanta TRACON
Wed 08:27:49 PM 33.9500 -84.7833 248° West 157 181 5,100 50 Climbing Atlanta TRACON
Wed 08:28:50 PM 33.9333 -84.8333 248° West 158 182 5,100 -50 Level Atlanta TRACON
Wed 08:29:50 PM 33.9167 -84.8667 239° Southwest 157 181 5,000 -200 Descending Atlanta TRACON
Wed 08:30:50 PM 33.9000 -84.9167 248° West 186 214 4,700 -300 Descending Atlanta TRACON
Wed 08:31:50 PM 33.8667 -84.9500 220° Southwest 162 186 4,400 -350 Descending Atlanta TRACON
Wed 08:32:50 PM 33.8333 -84.9833 220° Southwest 158 182 4,000 -350 Descending Atlanta TRACON
Wed 08:33:50 PM 33.8000 -85.0167 220° Southwest 155 178 3,700 -303 Descending Atlanta TRACON
Wed 08:34:49 PM 33.7500 -85.0500 209° Southwest 155 178 3,400 -53 Descending Atlanta TRACON
Wed 08:35:44 PM 33.7333 -85.0667 220° Southwest 143 165 3,600 99 Climbing Atlanta TRACON
Wed 08:36:50 PM 33.7000 -85.1167 231° Southwest 145 167 3,600 -314 Level Atlanta TRACON
Wed 08:38:55 PM 33.6500 -85.1667 220° Southwest 138 159 2,600 -433 Descending Atlanta TRACON
Wed 08:39:50 PM 33.6167 -85.1667 180° South 105 121 2,300 -261 Descending Atlanta TRACON
Wed 08:40:50 PM 33.5833 -85.1667 180° South 115 132 2,100 -100 Descending Atlanta TRACON
Wed 08:41:50 PM 33.5833 -85.1667 180° South 98 113 2,100  Level Atlanta TRACON
Wed 08:42:50 PM 33.5833 -85.1667 40° Northeast 98 113 2,100  Level Atlanta TRACON

Login

Don't have an account? Register now (free) for customized features, flight alerts, and more!